Terminal Aerodrome Forecast
Issued by NWS

Home | Current Version | Previous Version | Text Only | Print | Product List | Glossary On
Versions: 1 2 3 4 5 6 7 8 9 10 11 12 13 14 15 16 17 18 19 20 21 22 23 24
000
FTUS42 KGSP 020541
TAFAND
TAF
KAND 020541Z 0206/0306 23004KT 1/2SM FG OVC002
      TEMPO 0206/0209 1/4SM FG VV001
     FM021000 23004KT 3/4SM BR OVC002
     FM021400 24005KT P6SM OVC012
     FM022000 23004KT P6SM OVC024
     FM030000 07005KT 6SM BR OVC018
     FM030500 08006KT P6SM -RA OVC009=

USA.gov is the U.S. government's official web portal to all federal, state and local government web resources and services.